Time;durP1;ratioP1;P1;durP2;ratioP2;P2;SDS_P1;SDS_P2;PMS_P1;PMS_P2;Temp;Humidity;BMP_temperature;BMP_pressure;BME280_temperature;BME280_humidity;BME280_pressure;Samples;Min_cycle;Max_cycle;Signal;HPM_P1;HPM_P2
2023/07/20 00:00:24;;;;;;;47.17;23.93;;;;;;;;;;6194032;28;20058;-61
2023/07/20 00:03:54;;;;;;;45.57;22.17;;;;;;;;;;6186664;28;20046;-60
2023/07/20 00:06:55;;;;;;;48.20;22.63;;;;;;;;;;6197497;28;20315;-60
2023/07/20 00:09:55;;;;;;;47.77;23.17;;;;;;;;;;6199307;28;20069;-60
2023/07/20 00:12:56;;;;;;;39.37;21.30;;;;;;;;;;6196427;28;20144;-59
2023/07/20 00:15:57;;;;;;;44.43;18.90;;;;;;;;;;6201236;28;20043;-60
2023/07/20 00:18:57;;;;;;;33.78;18.42;;;;;;;;;;6194622;28;20193;-59
2023/07/20 00:21:58;;;;;;;40.10;18.77;;;;;;;;;;6205401;28;20050;-61
2023/07/20 00:24:59;;;;;;;34.93;17.07;;;;;;;;;;6199860;28;20070;-61
2023/07/20 00:27:59;;;;;;;28.90;15.60;;;;;;;;;;6202818;28;20065;-60
2023/07/20 00:31:00;;;;;;;23.57;13.03;;;;;;;;;;6202854;28;20085;-60
2023/07/20 00:34:01;;;;;;;23.77;11.80;;;;;;;;;;6205473;28;20053;-60
2023/07/20 00:37:01;;;;;;;23.43;10.87;;;;;;;;;;6201914;28;20074;-60
2023/07/20 00:40:04;;;;;;;23.03;9.83;;;;;;;;;;6200299;28;20046;-60
2023/07/20 00:43:06;;;;;;;19.05;9.38;;;;;;;;;;6204595;28;20149;-60
2023/07/20 00:46:07;;;;;;;17.80;8.80;;;;;;;;;;6198268;28;20482;-61
2023/07/20 00:49:08;;;;;;;16.80;7.68;;;;;;;;;;6197049;28;20054;-60
2023/07/20 00:52:11;;;;;;;19.83;8.93;;;;;;;;;;6201237;28;20124;-59
2023/07/20 00:55:12;;;;;;;15.18;7.78;;;;;;;;;;6199168;28;20039;-60
2023/07/20 00:58:12;;;;;;;16.63;6.90;;;;;;;;;;6207483;28;20412;-60
2023/07/20 01:01:13;;;;;;;14.17;6.83;;;;;;;;;;6204366;28;20042;-58
2023/07/20 01:04:14;;;;;;;12.30;6.93;;;;;;;;;;6211577;28;20426;-59
2023/07/20 01:07:39;;;;;;;12.93;6.50;;;;;;;;;;6205945;28;20374;-61
2023/07/20 01:10:57;;;;;;;14.48;7.47;;;;;;;;;;6201449;28;20101;-60
2023/07/20 01:13:58;;;;;;;16.45;6.88;;;;;;;;;;6197857;28;20455;-61
2023/07/20 01:16:58;;;;;;;15.80;7.23;;;;;;;;;;6200080;28;20861;-61
2023/07/20 01:20:00;;;;;;;15.90;7.80;;;;;;;;;;6197669;28;20710;-60
2023/07/20 01:23:27;;;;;;;15.45;7.80;;;;;;;;;;6196968;28;20042;-61
2023/07/20 01:27:06;;;;;;;15.95;7.55;;;;;;;;;;6198937;28;20466;-61
2023/07/20 01:30:21;;;;;;;16.15;7.45;;;;;;;;;;6206010;28;20049;-60
2023/07/20 01:33:25;;;;;;;18.88;8.20;;;;;;;;;;6206432;28;20148;-60
2023/07/20 01:36:27;;;;;;;18.38;7.93;;;;;;;;;;6208795;28;20459;-60
2023/07/20 01:39:28;;;;;;;18.48;8.27;;;;;;;;;;6193923;28;20080;-60
2023/07/20 01:42:29;;;;;;;12.70;7.43;;;;;;;;;;6196597;28;20501;-60
2023/07/20 01:45:30;;;;;;;17.10;8.13;;;;;;;;;;6201017;28;20127;-60
2023/07/20 01:48:31;;;;;;;15.90;7.77;;;;;;;;;;6200890;28;20464;-59
2023/07/20 01:51:31;;;;;;;16.90;7.87;;;;;;;;;;6202989;28;20448;-60
2023/07/20 01:54:32;;;;;;;13.37;7.70;;;;;;;;;;6199323;28;20069;-60
2023/07/20 01:57:33;;;;;;;16.20;8.20;;;;;;;;;;6199773;28;20046;-56
2023/07/20 02:00:33;;;;;;;18.43;8.67;;;;;;;;;;6200099;28;20061;-60
2023/07/20 02:03:34;;;;;;;18.30;8.30;;;;;;;;;;6197310;28;20089;-60
2023/07/20 02:06:34;;;;;;;18.00;8.20;;;;;;;;;;6197946;28;20042;-57
2023/07/20 02:09:35;;;;;;;14.77;8.13;;;;;;;;;;6182580;28;20153;-60
2023/07/20 02:12:36;;;;;;;14.53;8.70;;;;;;;;;;6202366;28;20049;-60
2023/07/20 02:15:36;;;;;;;16.83;8.20;;;;;;;;;;6192017;28;20441;-61
2023/07/20 02:18:37;;;;;;;20.40;8.07;;;;;;;;;;6196515;28;20050;-60
2023/07/20 02:21:38;;;;;;;13.77;7.70;;;;;;;;;;6214854;28;20045;-60
2023/07/20 02:24:39;;;;;;;13.40;7.55;;;;;;;;;;6198653;28;20058;-59
2023/07/20 02:27:40;;;;;;;18.60;7.83;;;;;;;;;;6198397;28;20100;-60
2023/07/20 02:30:41;;;;;;;13.27;7.43;;;;;;;;;;6197135;28;20149;-60
2023/07/20 02:33:41;;;;;;;17.27;7.67;;;;;;;;;;6195559;28;20046;-60
2023/07/20 02:36:42;;;;;;;18.13;7.47;;;;;;;;;;6199043;28;20526;-59
2023/07/20 02:39:43;;;;;;;18.20;7.30;;;;;;;;;;6195898;28;20546;-60
2023/07/20 02:42:43;;;;;;;14.43;7.63;;;;;;;;;;6199459;28;20092;-59
2023/07/20 02:45:44;;;;;;;18.10;8.17;;;;;;;;;;6196641;28;20498;-61
2023/07/20 02:48:45;;;;;;;18.00;8.43;;;;;;;;;;6212120;28;20046;-61
2023/07/20 02:51:46;;;;;;;15.15;7.70;;;;;;;;;;6200799;28;20042;-61
2023/07/20 02:54:46;;;;;;;21.85;7.95;;;;;;;;;;6187951;28;20057;-61
2023/07/20 02:57:47;;;;;;;27.37;8.40;;;;;;;;;;6215884;28;20108;-58
2023/07/20 03:00:47;;;;;;;18.40;8.40;;;;;;;;;;6201197;28;20410;-61
2023/07/20 03:03:49;;;;;;;24.92;9.90;;;;;;;;;;6196877;28;20081;-60
2023/07/20 03:06:50;;;;;;;19.02;9.45;;;;;;;;;;6195344;28;20072;-59
2023/07/20 03:09:51;;;;;;;23.50;9.27;;;;;;;;;;6204472;28;20034;-59
2023/07/20 03:12:51;;;;;;;23.35;9.73;;;;;;;;;;6201197;28;20721;-60
2023/07/20 03:15:53;;;;;;;20.17;9.70;;;;;;;;;;6195292;28;20061;-60
2023/07/20 03:18:53;;;;;;;25.77;11.10;;;;;;;;;;6196132;28;20074;-58
2023/07/20 03:21:54;;;;;;;24.57;10.60;;;;;;;;;;6196991;28;20039;-59
2023/07/20 03:24:54;;;;;;;23.57;12.07;;;;;;;;;;6196265;28;20406;-61
2023/07/20 03:27:55;;;;;;;30.53;11.77;;;;;;;;;;6194268;28;20470;-61
2023/07/20 03:30:56;;;;;;;22.47;10.57;;;;;;;;;;6194828;28;20049;-61
2023/07/20 03:33:57;;;;;;;20.98;10.02;;;;;;;;;;6197828;28;20050;-61
2023/07/20 03:36:58;;;;;;;21.70;9.93;;;;;;;;;;6194356;28;20104;-61
2023/07/20 03:39:59;;;;;;;20.00;9.27;;;;;;;;;;6195492;28;20095;-61
2023/07/20 03:43:00;;;;;;;16.45;8.40;;;;;;;;;;6195883;28;20050;-60
2023/07/20 03:46:00;;;;;;;18.05;8.45;;;;;;;;;;6200807;28;20100;-61
2023/07/20 03:49:01;;;;;;;18.00;8.73;;;;;;;;;;6191721;28;20049;-60
2023/07/20 03:52:03;;;;;;;21.45;8.93;;;;;;;;;;6178109;28;20053;-61
2023/07/20 03:55:03;;;;;;;18.83;8.93;;;;;;;;;;6195562;28;20522;-61
2023/07/20 03:58:04;;;;;;;19.52;8.43;;;;;;;;;;6190014;28;20046;-61
2023/07/20 04:01:04;;;;;;;18.27;8.38;;;;;;;;;;6199528;28;20060;-60
2023/07/20 04:04:07;;;;;;;17.05;8.30;;;;;;;;;;6207862;28;20061;-61
2023/07/20 04:07:08;;;;;;;16.98;8.20;;;;;;;;;;6200769;28;20474;-61
2023/07/20 04:10:09;;;;;;;19.50;8.88;;;;;;;;;;6197581;28;20057;-60
2023/07/20 04:13:09;;;;;;;17.00;7.55;;;;;;;;;;6197935;28;20464;-60
2023/07/20 04:16:10;;;;;;;14.43;7.97;;;;;;;;;;6198418;28;20057;-61
2023/07/20 04:19:11;;;;;;;15.23;8.47;;;;;;;;;;6200192;28;20046;-58
2023/07/20 04:22:11;;;;;;;15.02;8.25;;;;;;;;;;6197690;28;20034;-60
2023/07/20 04:25:12;;;;;;;19.27;9.30;;;;;;;;;;6198958;28;20042;-61
2023/07/20 04:28:13;;;;;;;16.50;8.02;;;;;;;;;;6198287;28;20823;-60
2023/07/20 04:31:14;;;;;;;21.75;8.70;;;;;;;;;;6198399;28;20046;-60
2023/07/20 04:34:15;;;;;;;15.75;7.63;;;;;;;;;;6202281;28;20049;-61
2023/07/20 04:37:16;;;;;;;16.43;7.57;;;;;;;;;;6198433;28;20378;-61
2023/07/20 04:40:16;;;;;;;14.90;7.57;;;;;;;;;;6197010;28;20070;-61
2023/07/20 04:43:18;;;;;;;20.33;8.35;;;;;;;;;;6201597;28;20038;-60
2023/07/20 04:46:19;;;;;;;12.73;7.18;;;;;;;;;;6198419;28;20053;-61
2023/07/20 04:49:19;;;;;;;14.90;7.60;;;;;;;;;;6208670;28;20650;-61
2023/07/20 04:52:20;;;;;;;13.20;7.50;;;;;;;;;;6201894;28;20542;-64
2023/07/20 04:55:20;;;;;;;18.07;7.97;;;;;;;;;;6200712;28;20045;-62
2023/07/20 04:58:22;;;;;;;14.00;8.20;;;;;;;;;;6201367;28;20081;-59
2023/07/20 05:01:23;;;;;;;15.82;8.27;;;;;;;;;;6198722;28;20042;-61
2023/07/20 05:04:24;;;;;;;20.25;8.73;;;;;;;;;;6201480;28;20383;-60
2023/07/20 05:07:24;;;;;;;18.50;7.57;;;;;;;;;;6196672;28;20038;-59
2023/07/20 05:10:25;;;;;;;15.63;8.00;;;;;;;;;;6204468;28;20073;-61
2023/07/20 05:13:25;;;;;;;13.43;7.40;;;;;;;;;;6211757;28;20540;-61
2023/07/20 05:16:26;;;;;;;16.23;8.30;;;;;;;;;;6197917;28;20490;-59
2023/07/20 05:19:26;;;;;;;16.53;8.57;;;;;;;;;;6197524;28;20448;-60
2023/07/20 05:22:27;;;;;;;21.10;8.70;;;;;;;;;;6199207;28;20145;-60
2023/07/20 05:25:28;;;;;;;13.83;8.83;;;;;;;;;;6196984;28;20379;-61
2023/07/20 05:28:28;;;;;;;16.10;8.40;;;;;;;;;;6198168;28;20227;-61
2023/07/20 05:31:30;;;;;;;18.17;7.33;;;;;;;;;;6195718;28;20057;-61
2023/07/20 05:34:31;;;;;;;14.77;8.02;;;;;;;;;;6196388;28;20042;-61
2023/07/20 05:37:31;;;;;;;17.03;8.30;;;;;;;;;;6195901;28;20049;-61
2023/07/20 05:40:32;;;;;;;16.17;8.67;;;;;;;;;;6196529;28;20073;-61
2023/07/20 05:43:33;;;;;;;25.00;8.87;;;;;;;;;;6199102;28;20046;-60
2023/07/20 05:46:33;;;;;;;15.30;8.27;;;;;;;;;;6197302;28;20164;-61
2023/07/20 05:49:34;;;;;;;18.03;9.30;;;;;;;;;;6198222;28;20053;-61
2023/07/20 05:52:35;;;;;;;17.67;9.02;;;;;;;;;;6199265;28;20046;-61
2023/07/20 05:55:36;;;;;;;19.20;8.50;;;;;;;;;;6198286;28;20057;-60
2023/07/20 05:58:36;;;;;;;19.87;8.83;;;;;;;;;;6197389;28;20042;-59
2023/07/20 06:01:37;;;;;;;21.40;9.73;;;;;;;;;;6196526;28;20442;-61
2023/07/20 06:04:39;;;;;;;20.13;9.13;;;;;;;;;;6197426;28;20045;-61
2023/07/20 06:07:40;;;;;;;;;;;;;;;;;;6196609;28;20073;-61
2023/07/20 06:10:40;;;;;;;24.33;10.82;;;;;;;;;;6196937;28;19925;-61
2023/07/20 06:13:43;;;;;;;19.23;9.97;;;;;;;;;;6194856;28;20397;-60
2023/07/20 06:16:44;;;;;;;24.25;10.00;;;;;;;;;;6195379;28;20633;-61
2023/07/20 06:19:44;;;;;;;15.97;8.30;;;;;;;;;;6197557;28;20341;-59
2023/07/20 06:22:45;;;;;;;16.53;8.57;;;;;;;;;;6196334;28;20133;-61
2023/07/20 06:25:46;;;;;;;21.13;8.17;;;;;;;;;;6194248;28;20233;-61
2023/07/20 06:28:46;;;;;;;16.77;7.90;;;;;;;;;;6179654;28;20045;-61
2023/07/20 06:31:47;;;;;;;17.23;7.37;;;;;;;;;;6197687;28;20049;-60
2023/07/20 06:34:47;;;;;;;14.30;7.27;;;;;;;;;;6197007;28;20188;-61
2023/07/20 06:37:48;;;;;;;15.53;7.53;;;;;;;;;;6199435;28;20049;-61
2023/07/20 06:40:49;;;;;;;16.37;7.63;;;;;;;;;;6201303;28;20049;-59
2023/07/20 06:43:50;;;;;;;18.13;7.00;;;;;;;;;;6197454;28;20103;-61
2023/07/20 06:46:50;;;;;;;15.43;7.00;;;;;;;;;;6194325;28;20038;-61
2023/07/20 06:49:52;;;;;;;12.97;7.13;;;;;;;;;;6194732;28;20049;-60
2023/07/20 06:52:52;;;;;;;;;;;;;;;;;;6191548;28;20049;-61
2023/07/20 06:55:53;;;;;;;15.90;7.03;;;;;;;;;;6193160;28;20270;-61
2023/07/20 06:58:54;;;;;;;15.00;6.40;;;;;;;;;;6201988;28;20050;-59
2023/07/20 07:01:54;;;;;;;14.27;6.70;;;;;;;;;;6201018;28;20501;-61
2023/07/20 07:04:56;;;;;;;18.10;7.37;;;;;;;;;;6175582;28;20062;-61
2023/07/20 07:07:56;;;;;;;13.63;7.13;;;;;;;;;;6195090;28;20046;-61
2023/07/20 07:10:57;;;;;;;14.17;6.63;;;;;;;;;;6196470;28;20295;-61
2023/07/20 07:13:57;;;;;;;12.57;6.10;;;;;;;;;;6195873;28;20361;-61
2023/07/20 07:16:58;;;;;;;14.43;6.20;;;;;;;;;;6196230;28;20482;-62
2023/07/20 07:19:58;;;;;;;9.33;5.10;;;;;;;;;;6196229;28;20053;-61
2023/07/20 07:23:00;;;;;;;14.43;5.47;;;;;;;;;;6198095;28;20141;-62
2023/07/20 07:26:00;;;;;;;11.38;5.30;;;;;;;;;;6195690;28;20054;-60
2023/07/20 07:29:01;;;;;;;12.03;5.13;;;;;;;;;;6194410;28;20620;-62
2023/07/20 07:32:02;;;;;;;12.93;5.60;;;;;;;;;;6194765;28;20054;-61
2023/07/20 07:35:04;;;;;;;10.63;4.97;;;;;;;;;;6195878;28;20558;-61
2023/07/20 07:38:06;;;;;;;10.48;4.70;;;;;;;;;;6199255;28;20345;-61
2023/07/20 07:41:07;;;;;;;8.60;4.50;;;;;;;;;;6200401;28;20043;-61
2023/07/20 07:44:07;;;;;;;7.17;3.80;;;;;;;;;;6201647;28;20092;-60
2023/07/20 07:47:08;;;;;;;7.90;4.63;;;;;;;;;;6197488;28;20128;-61
2023/07/20 07:50:09;;;;;;;7.70;4.33;;;;;;;;;;6199377;28;20045;-60
2023/07/20 07:53:10;;;;;;;7.95;3.80;;;;;;;;;;6199210;28;20050;-61
2023/07/20 07:56:11;;;;;;;7.33;3.70;;;;;;;;;;6198753;28;20049;-62
2023/07/20 07:59:11;;;;;;;8.20;3.50;;;;;;;;;;6206603;28;20049;-61
2023/07/20 08:02:12;;;;;;;6.70;3.17;;;;;;;;;;6205206;28;20714;-61
2023/07/20 08:05:13;;;;;;;6.57;3.30;;;;;;;;;;6200154;28;20160;-61
2023/07/20 08:08:13;;;;;;;7.50;3.47;;;;;;;;;;6200106;28;20038;-61
2023/07/20 08:11:14;;;;;;;5.13;2.90;;;;;;;;;;6201440;28;20057;-62
2023/07/20 08:14:15;;;;;;;9.00;3.03;;;;;;;;;;6200478;28;20072;-61
2023/07/20 08:17:15;;;;;;;7.75;3.50;;;;;;;;;;6196897;28;20049;-61
2023/07/20 08:20:17;;;;;;;9.77;3.80;;;;;;;;;;6196704;28;20050;-61
2023/07/20 08:23:19;;;;;;;;;;;;;;;;;;6199003;28;20038;-61
2023/07/20 08:26:22;;;;;;;11.60;4.05;;;;;;;;;;6197123;28;20063;-62
2023/07/20 08:29:23;;;;;;;7.70;3.30;;;;;;;;;;6198905;28;20544;-61
2023/07/20 08:32:25;;;;;;;8.65;3.58;;;;;;;;;;6200542;28;20056;-61
2023/07/20 08:35:26;;;;;;;;;;;;;;;;;;6199215;28;20054;-62
2023/07/20 08:38:26;;;;;;;8.35;4.22;;;;;;;;;;6198320;28;20392;-61
2023/07/20 08:41:27;;;;;;;7.77;4.00;;;;;;;;;;6198653;28;20485;-61
2023/07/20 08:44:28;;;;;;;9.80;4.37;;;;;;;;;;6198615;28;20046;-61
2023/07/20 08:47:28;;;;;;;9.57;4.40;;;;;;;;;;6194793;28;20056;-61
2023/07/20 08:50:30;;;;;;;8.37;4.90;;;;;;;;;;6199030;28;20086;-60
2023/07/20 08:53:32;;;;;;;10.10;5.43;;;;;;;;;;6200892;28;20057;-61
2023/07/20 08:56:33;;;;;;;;;;;;;;;;;;6199039;28;20066;-61
2023/07/20 08:59:36;;;;;;;15.90;7.95;;;;;;;;;;6199203;28;19979;-59
2023/07/20 09:02:40;;;;;;;14.85;8.75;;;;;;;;;;6197481;28;20112;-61
2023/07/20 09:05:41;;;;;;;15.68;8.98;;;;;;;;;;6196123;28;20077;-61
2023/07/20 09:08:42;;;;;;;14.20;8.17;;;;;;;;;;6197960;28;20045;-62
2023/07/20 09:11:46;;;;;;;17.17;9.35;;;;;;;;;;6199970;28;20184;-61
2023/07/20 09:14:46;;;;;;;16.98;9.52;;;;;;;;;;6199312;28;20050;-60
2023/07/20 09:17:48;;;;;;;15.93;9.57;;;;;;;;;;6197754;28;20124;-61
2023/07/20 09:20:49;;;;;;;14.57;8.88;;;;;;;;;;6200092;28;20100;-61
2023/07/20 09:23:56;;;;;;;16.57;9.63;;;;;;;;;;6197851;28;20490;-61
2023/07/20 09:26:57;;;;;;;20.35;10.30;;;;;;;;;;6197044;28;20046;-61
2023/07/20 09:29:57;;;;;;;17.07;10.10;;;;;;;;;;6197289;28;20564;-61
2023/07/20 09:32:58;;;;;;;18.73;11.10;;;;;;;;;;6197470;28;20053;-61
2023/07/20 09:36:03;;;;;;;17.63;10.65;;;;;;;;;;6197428;28;20058;-61
2023/07/20 09:39:07;;;;;;;21.38;11.50;;;;;;;;;;6194540;28;20486;-62
2023/07/20 09:42:08;;;;;;;19.40;11.18;;;;;;;;;;6200320;28;20057;-61
2023/07/20 09:45:09;;;;;;;19.77;11.87;;;;;;;;;;6198879;28;20419;-61
2023/07/20 09:48:11;;;;;;;22.65;11.93;;;;;;;;;;6196774;28;20165;-60
2023/07/20 09:51:11;;;;;;;;;;;;;;;;;;6195054;28;20042;-62
2023/07/20 09:54:13;;;;;;;21.10;11.38;;;;;;;;;;6198326;28;20261;-61
2023/07/20 09:57:14;;;;;;;20.60;12.05;;;;;;;;;;6195335;28;20050;-61
2023/07/20 10:00:16;;;;;;;17.63;11.35;;;;;;;;;;6195344;28;20504;-62
2023/07/20 10:03:20;;;;;;;21.08;11.65;;;;;;;;;;6197671;28;20058;-61
2023/07/20 10:06:24;;;;;;;18.58;12.88;;;;;;;;;;6182810;28;20561;-61
2023/07/20 10:09:25;;;;;;;23.67;12.68;;;;;;;;;;6191848;28;20173;-61
2023/07/20 10:12:28;;;;;;;19.35;12.48;;;;;;;;;;6193164;28;20053;-61
2023/07/20 10:15:34;;;;;;;20.70;13.25;;;;;;;;;;6196627;28;20061;-61
2023/07/20 10:18:55;;;;;;;21.63;13.23;;;;;;;;;;6195379;28;20641;-61
2023/07/20 10:22:07;;;;;;;20.95;13.82;;;;;;;;;;6196448;28;20043;-62
2023/07/20 10:25:08;;;;;;;26.33;14.77;;;;;;;;;;6198037;28;20050;-61
2023/07/20 10:28:10;;;;;;;26.52;14.30;;;;;;;;;;6197352;28;20042;-62
2023/07/20 10:31:12;;;;;;;;;;;;;;;;;;6195629;28;20037;-61
2023/07/20 10:34:12;;;;;;;26.30;14.80;;;;;;;;;;6196526;28;19922;-62
2023/07/20 10:37:49;;;;;;;27.38;14.60;;;;;;;;;;6195732;28;20267;-61
2023/07/20 10:40:56;;;;;;;25.25;15.57;;;;;;;;;;6192748;28;20116;-61
2023/07/20 10:44:07;;;;;;;25.73;15.48;;;;;;;;;;6193840;28;20042;-61
2023/07/20 10:47:09;;;;;;;27.92;15.23;;;;;;;;;;6195709;28;20050;-61
2023/07/20 10:50:12;;;;;;;25.02;15.80;;;;;;;;;;6196365;28;20822;-61
2023/07/20 10:53:15;;;;;;;23.13;13.32;;;;;;;;;;6196599;28;20053;-61
2023/07/20 10:56:20;;;;;;;23.35;12.90;;;;;;;;;;6195729;28;20042;-61
2023/07/20 10:59:24;;;;;;;19.70;12.15;;;;;;;;;;6195493;28;20061;-62
2023/07/20 11:02:25;;;;;;;17.65;11.50;;;;;;;;;;6191176;28;20520;-61
2023/07/20 11:05:34;;;;;;;25.37;11.87;;;;;;;;;;6203769;28;20050;-61
2023/07/20 11:08:41;;;;;;;16.88;10.48;;;;;;;;;;6194131;28;20133;-61
2023/07/20 11:11:47;;;;;;;17.17;9.73;;;;;;;;;;6195213;28;20042;-61
2023/07/20 11:14:57;;;;;;;15.55;9.18;;;;;;;;;;6193960;28;20045;-61
2023/07/20 11:18:12;;;;;;;12.93;9.00;;;;;;;;;;6194889;28;20053;-61
2023/07/20 11:21:15;;;;;;;13.15;8.82;;;;;;;;;;6195850;28;20442;-61
2023/07/20 11:24:16;;;;;;;12.50;8.60;;;;;;;;;;6194857;28;20588;-62
2023/07/20 11:27:22;;;;;;;13.53;8.33;;;;;;;;;;6193941;28;20054;-61
2023/07/20 11:30:22;;;;;;;11.18;7.78;;;;;;;;;;6196477;28;20045;-61
2023/07/20 11:33:23;;;;;;;18.57;8.23;;;;;;;;;;6194916;28;20161;-61
2023/07/20 11:36:23;;;;;;;11.27;7.80;;;;;;;;;;6192959;28;20093;-61
2023/07/20 11:39:25;;;;;;;12.70;7.97;;;;;;;;;;6195702;28;20050;-61
2023/07/20 11:42:25;;;;;;;13.07;7.75;;;;;;;;;;6190406;28;20639;-61
2023/07/20 11:45:27;;;;;;;12.43;7.03;;;;;;;;;;6194974;28;20077;-61
2023/07/20 11:48:28;;;;;;;12.88;7.72;;;;;;;;;;6174858;28;20057;-61
2023/07/20 11:51:29;;;;;;;12.13;7.20;;;;;;;;;;6194015;28;20054;-61
2023/07/20 11:54:31;;;;;;;12.20;7.13;;;;;;;;;;6197020;28;20054;-61
2023/07/20 11:57:32;;;;;;;12.73;7.07;;;;;;;;;;6194803;28;20046;-61
2023/07/20 12:00:34;;;;;;;10.52;6.32;;;;;;;;;;6197153;28;20049;-62
2023/07/20 12:03:35;;;;;;;10.65;6.60;;;;;;;;;;6193330;28;20106;-62
2023/07/20 12:06:35;;;;;;;10.63;6.67;;;;;;;;;;6192417;28;20197;-62
2023/07/20 12:09:36;;;;;;;11.93;6.60;;;;;;;;;;6189258;28;20090;-61
2023/07/20 12:12:41;;;;;;;9.60;6.87;;;;;;;;;;6192505;28;20405;-61
2023/07/20 12:15:43;;;;;;;10.25;6.65;;;;;;;;;;6192970;28;20465;-61
2023/07/20 12:18:44;;;;;;;11.07;6.47;;;;;;;;;;6194115;28;20429;-58
2023/07/20 12:21:45;;;;;;;10.33;6.97;;;;;;;;;;6195102;28;20169;-61
2023/07/20 12:24:46;;;;;;;10.85;7.00;;;;;;;;;;6195935;28;20042;-60
2023/07/20 12:27:48;;;;;;;9.70;6.80;;;;;;;;;;6193181;28;20142;-62
2023/07/20 12:30:56;;;;;;;11.88;6.72;;;;;;;;;;6200099;28;20054;-61
2023/07/20 12:33:57;;;;;;;12.55;7.05;;;;;;;;;;6197362;28;20504;-61
2023/07/20 12:36:58;;;;;;;9.18;6.78;;;;;;;;;;6195034;28;20124;-61
2023/07/20 12:40:00;;;;;;;12.50;6.95;;;;;;;;;;6197513;28;20438;-61
2023/07/20 12:43:00;;;;;;;13.07;6.87;;;;;;;;;;6198259;28;20050;-61
2023/07/20 12:46:01;;;;;;;10.47;6.50;;;;;;;;;;6199017;28;20483;-60
2023/07/20 12:49:01;;;;;;;8.43;6.00;;;;;;;;;;6196986;28;20038;-61
2023/07/20 12:52:03;;;;;;;7.87;6.07;;;;;;;;;;6197331;28;20551;-61
2023/07/20 12:55:04;;;;;;;10.73;6.05;;;;;;;;;;6196636;28;21209;-61
2023/07/20 12:58:06;;;;;;;9.25;6.47;;;;;;;;;;6191219;28;20064;-60
2023/07/20 13:01:07;;;;;;;11.75;6.95;;;;;;;;;;6192759;28;20354;-58
2023/07/20 13:04:10;;;;;;;10.20;6.50;;;;;;;;;;6193508;28;20405;-61
2023/07/20 13:07:14;;;;;;;10.15;6.53;;;;;;;;;;6192042;28;20042;-60
2023/07/20 13:10:15;;;;;;;12.48;7.10;;;;;;;;;;6194515;28;20046;-60
2023/07/20 13:13:15;;;;;;;8.97;6.97;;;;;;;;;;6195747;28;20522;-61
2023/07/20 13:16:16;;;;;;;11.73;6.57;;;;;;;;;;6195390;28;20085;-60
2023/07/20 13:19:17;;;;;;;9.75;6.55;;;;;;;;;;6194552;28;20558;-60
2023/07/20 13:22:18;;;;;;;12.47;6.30;;;;;;;;;;6195864;28;20125;-60
2023/07/20 13:25:21;;;;;;;9.73;6.27;;;;;;;;;;6198140;28;20092;-61
2023/07/20 13:28:22;;;;;;;8.55;6.53;;;;;;;;;;6193684;28;20050;-61
2023/07/20 13:31:22;;;;;;;8.70;6.33;;;;;;;;;;6194424;28;20050;-61
2023/07/20 13:34:23;;;;;;;9.03;6.30;;;;;;;;;;6195525;28;20052;-60
2023/07/20 13:37:24;;;;;;;7.50;5.25;;;;;;;;;;6194838;28;20050;-61
2023/07/20 13:40:24;;;;;;;13.87;5.97;;;;;;;;;;6199663;28;20124;-60
2023/07/20 13:43:25;;;;;;;8.50;5.80;;;;;;;;;;6199245;28;20058;-60
2023/07/20 13:46:26;;;;;;;9.50;6.00;;;;;;;;;;6196188;28;20500;-59
2023/07/20 13:49:28;;;;;;;12.37;6.13;;;;;;;;;;6192721;28;20299;-60
2023/07/20 13:52:29;;;;;;;10.20;5.53;;;;;;;;;;6197643;28;20769;-59
2023/07/20 13:55:30;;;;;;;10.77;5.83;;;;;;;;;;6196214;28;20057;-61
2023/07/20 13:58:32;;;;;;;11.35;6.28;;;;;;;;;;6190048;28;20056;-60
2023/07/20 14:01:34;;;;;;;8.25;6.05;;;;;;;;;;6193739;28;20054;-60
2023/07/20 14:04:35;;;;;;;8.93;5.57;;;;;;;;;;6194936;28;20433;-61
2023/07/20 14:07:36;;;;;;;9.05;5.88;;;;;;;;;;6191632;28;20280;-59
2023/07/20 14:10:37;;;;;;;;;;;;;;;;;;6194022;28;20053;-61
2023/07/20 14:13:38;;;;;;;10.40;6.00;;;;;;;;;;6193334;28;19937;-60
2023/07/20 14:16:39;;;;;;;7.88;5.70;;;;;;;;;;6195767;28;20107;-60
2023/07/20 14:19:39;;;;;;;11.93;5.47;;;;;;;;;;6171903;28;20042;-60
2023/07/20 14:22:41;;;;;;;9.00;5.33;;;;;;;;;;6194612;28;20445;-59
2023/07/20 14:25:42;;;;;;;;;;;;;;;;;;6193570;28;20104;-59
2023/07/20 14:28:43;;;;;;;11.10;5.65;;;;;;;;;;6190917;28;19921;-60
2023/07/20 14:31:44;;;;;;;11.23;5.73;;;;;;;;;;6191841;28;20066;-60
2023/07/20 14:34:44;;;;;;;8.98;6.00;;;;;;;;;;6198993;28;20056;-60
2023/07/20 14:37:46;;;;;;;8.83;5.07;;;;;;;;;;6191477;28;20542;-61
2023/07/20 14:40:47;;;;;;;10.82;5.60;;;;;;;;;;6191585;28;20490;-60
2023/07/20 14:43:48;;;;;;;9.80;5.27;;;;;;;;;;6191161;28;20042;-61
2023/07/20 14:46:49;;;;;;;7.30;5.40;;;;;;;;;;6188133;28;20046;-61
2023/07/20 14:49:49;;;;;;;7.40;5.10;;;;;;;;;;6191695;28;20292;-60
2023/07/20 14:52:50;;;;;;;12.83;6.20;;;;;;;;;;6195276;28;20053;-61
2023/07/20 14:55:50;;;;;;;9.47;5.73;;;;;;;;;;6197165;28;20042;-60
2023/07/20 14:58:51;;;;;;;10.60;5.73;;;;;;;;;;6196836;28;20048;-60
2023/07/20 15:01:53;;;;;;;8.50;5.37;;;;;;;;;;6198178;28;20058;-61
2023/07/20 15:04:53;;;;;;;;;;;;;;;;;;6196830;28;20057;-64
2023/07/20 15:07:54;;;;;;;15.35;5.97;;;;;;;;;;6191883;28;20444;-61
2023/07/20 15:10:55;;;;;;;9.27;5.77;;;;;;;;;;6193041;28;20050;-61
2023/07/20 15:13:56;;;;;;;11.63;5.63;;;;;;;;;;6191701;28;20097;-60
2023/07/20 15:16:56;;;;;;;7.15;5.25;;;;;;;;;;6190896;28;20058;-60
2023/07/20 15:19:57;;;;;;;8.87;5.17;;;;;;;;;;6196106;28;20486;-61
2023/07/20 15:22:58;;;;;;;10.27;5.43;;;;;;;;;;6196159;28;20042;-60
2023/07/20 15:25:58;;;;;;;9.67;5.20;;;;;;;;;;6195427;28;20046;-60
2023/07/20 15:28:59;;;;;;;10.07;4.93;;;;;;;;;;6189621;28;20100;-60
2023/07/20 15:31:59;;;;;;;9.10;5.43;;;;;;;;;;6196670;28;20045;-60
2023/07/20 15:35:00;;;;;;;11.27;5.20;;;;;;;;;;6196616;28;20054;-60
2023/07/20 15:38:01;;;;;;;10.07;5.60;;;;;;;;;;6191958;28;20448;-61
2023/07/20 15:41:01;;;;;;;8.97;5.03;;;;;;;;;;6195530;28;20148;-61
2023/07/20 15:44:03;;;;;;;14.07;5.03;;;;;;;;;;6196793;28;20607;-61
2023/07/20 15:47:06;;;;;;;9.77;4.47;;;;;;;;;;6193324;28;20058;-61
2023/07/20 15:50:06;;;;;;;10.90;4.70;;;;;;;;;;6195291;28;20053;-60
2023/07/20 15:53:07;;;;;;;11.23;4.40;;;;;;;;;;6198204;28;20050;-57
2023/07/20 15:56:08;;;;;;;11.13;5.13;;;;;;;;;;6195347;28;20342;-59
2023/07/20 15:59:10;;;;;;;9.27;4.73;;;;;;;;;;6195841;28;20053;-59
2023/07/20 16:02:11;;;;;;;9.70;4.72;;;;;;;;;;6196748;28;20096;-59
2023/07/20 16:05:12;;;;;;;8.57;4.73;;;;;;;;;;6197809;28;20054;-59
2023/07/20 16:08:13;;;;;;;11.40;4.97;;;;;;;;;;6193611;28;20061;-55
2023/07/20 16:11:13;;;;;;;9.27;4.60;;;;;;;;;;6196256;28;20069;-59
2023/07/20 16:14:14;;;;;;;9.50;4.87;;;;;;;;;;6199324;28;20506;-60
2023/07/20 16:17:15;;;;;;;8.63;4.65;;;;;;;;;;6194680;28;20056;-60
2023/07/20 16:20:15;;;;;;;11.53;4.67;;;;;;;;;;6198597;28;20512;-60
2023/07/20 16:23:16;;;;;;;7.83;4.40;;;;;;;;;;6197985;28;20046;-60
2023/07/20 16:26:17;;;;;;;8.47;4.07;;;;;;;;;;6194017;28;20042;-61
2023/07/20 16:29:18;;;;;;;8.55;4.70;;;;;;;;;;6191616;28;20107;-61
2023/07/20 16:32:18;;;;;;;6.43;4.27;;;;;;;;;;6198049;28;20042;-60
2023/07/20 16:35:19;;;;;;;8.50;4.70;;;;;;;;;;6199251;28;20186;-60
2023/07/20 16:38:19;;;;;;;8.53;4.77;;;;;;;;;;6197621;28;20486;-60
2023/07/20 16:41:20;;;;;;;8.23;4.63;;;;;;;;;;6197562;28;20078;-60
2023/07/20 16:44:21;;;;;;;7.50;4.57;;;;;;;;;;6200974;28;20058;-60
2023/07/20 16:47:21;;;;;;;7.17;4.43;;;;;;;;;;6197338;28;20596;-61
2023/07/20 16:50:22;;;;;;;6.20;4.30;;;;;;;;;;6198218;28;20304;-61
2023/07/20 16:53:24;;;;;;;10.13;4.50;;;;;;;;;;6201929;28;20042;-61
2023/07/20 16:56:24;;;;;;;8.43;5.07;;;;;;;;;;6198595;28;20314;-61
2023/07/20 16:59:25;;;;;;;31.97;13.53;;;;;;;;;;6197979;28;20050;-61
2023/07/20 17:02:25;;;;;;;97.93;35.73;;;;;;;;;;6201822;28;20050;-61
2023/07/20 17:05:26;;;;;;;9.77;5.82;;;;;;;;;;6199231;28;20045;-61
2023/07/20 17:08:28;;;;;;;8.30;5.20;;;;;;;;;;6193534;28;20065;-60
2023/07/20 17:11:29;;;;;;;7.38;4.82;;;;;;;;;;6193138;28;20061;-56
2023/07/20 17:14:29;;;;;;;8.77;5.23;;;;;;;;;;6194029;28;20097;-58
2023/07/20 17:17:30;;;;;;;7.90;5.00;;;;;;;;;;6195729;28;20057;-59
2023/07/20 17:20:30;;;;;;;10.83;5.10;;;;;;;;;;6194143;28;20050;-59
2023/07/20 17:23:32;;;;;;;10.15;5.40;;;;;;;;;;6200827;28;20070;-59
2023/07/20 17:26:32;;;;;;;8.38;4.88;;;;;;;;;;6196308;28;20173;-57
2023/07/20 17:29:33;;;;;;;9.60;5.53;;;;;;;;;;6194132;28;20217;-60
2023/07/20 17:32:35;;;;;;;8.40;5.67;;;;;;;;;;6197359;28;20046;-58
2023/07/20 17:35:36;;;;;;;9.18;5.88;;;;;;;;;;6197657;28;20077;-57
2023/07/20 17:38:36;;;;;;;8.47;5.50;;;;;;;;;;6196022;28;20050;-58
2023/07/20 17:41:37;;;;;;;6.77;5.10;;;;;;;;;;6195976;28;20064;-57
2023/07/20 17:44:38;;;;;;;9.40;5.60;;;;;;;;;;6199537;28;20050;-60
2023/07/20 17:47:38;;;;;;;7.20;5.30;;;;;;;;;;6196549;28;20485;-58
2023/07/20 17:50:39;;;;;;;7.50;5.23;;;;;;;;;;6198040;28;20069;-59
2023/07/20 17:53:40;;;;;;;13.70;9.97;;;;;;;;;;6195034;28;20152;-60
2023/07/20 17:56:40;;;;;;;34.13;23.53;;;;;;;;;;6197955;28;20061;-60